sensor_id;sensor_type;location;lat;lon;timestamp;P1;durP1;ratioP1;P2;durP2;ratioP2
18796;SDS011;9526;52.612;13.300;2022-08-01T00:02:08;7.05;;;4.80;;
18796;SDS011;9526;52.612;13.300;2022-08-01T00:04:32;5.78;;;4.72;;
18796;SDS011;9526;52.612;13.300;2022-08-01T00:06:56;7.60;;;4.97;;
18796;SDS011;9526;52.612;13.300;2022-08-01T00:09:20;9.43;;;5.43;;
18796;SDS011;9526;52.612;13.300;2022-08-01T00:11:44;6.30;;;5.70;;
18796;SDS011;9526;52.612;13.300;2022-08-01T00:14:20;11.93;;;6.55;;
18796;SDS011;9526;52.612;13.300;2022-08-01T00:16:54;7.85;;;6.18;;
18796;SDS011;9526;52.612;13.300;2022-08-01T00:19:18;7.97;;;6.55;;
18796;SDS011;9526;52.612;13.300;2022-08-01T00:21:42;9.30;;;6.63;;
18796;SDS011;9526;52.612;13.300;2022-08-01T00:24:12;8.30;;;6.80;;
18796;SDS011;9526;52.612;13.300;2022-08-01T00:26:38;11.02;;;7.55;;
18796;SDS011;9526;52.612;13.300;2022-08-01T00:29:03;8.20;;;7.40;;
18796;SDS011;9526;52.612;13.300;2022-08-01T00:31:48;11.15;;;7.55;;
18796;SDS011;9526;52.612;13.300;2022-08-01T00:34:13;9.00;;;8.20;;
18796;SDS011;9526;52.612;13.300;2022-08-01T00:36:37;9.50;;;8.07;;
18796;SDS011;9526;52.612;13.300;2022-08-01T00:39:01;9.82;;;8.82;;
18796;SDS011;9526;52.612;13.300;2022-08-01T00:41:25;13.02;;;8.60;;
18796;SDS011;9526;52.612;13.300;2022-08-01T00:43:49;11.43;;;8.45;;
18796;SDS011;9526;52.612;13.300;2022-08-01T00:46:13;9.10;;;8.20;;
18796;SDS011;9526;52.612;13.300;2022-08-01T00:48:37;9.55;;;8.65;;
18796;SDS011;9526;52.612;13.300;2022-08-01T00:51:03;8.43;;;7.55;;
18796;SDS011;9526;52.612;13.300;2022-08-01T00:53:27;10.32;;;8.70;;
18796;SDS011;9526;52.612;13.300;2022-08-01T00:56:12;11.63;;;8.35;;
18796;SDS011;9526;52.612;13.300;2022-08-01T00:58:37;12.32;;;8.48;;
18796;SDS011;9526;52.612;13.300;2022-08-01T01:01:01;8.85;;;7.10;;
18796;SDS011;9526;52.612;13.300;2022-08-01T01:03:30;9.95;;;8.55;;
18796;SDS011;9526;52.612;13.300;2022-08-01T01:06:30;8.82;;;7.75;;
18796;SDS011;9526;52.612;13.300;2022-08-01T01:12:01;11.85;;;8.77;;
18796;SDS011;9526;52.612;13.300;2022-08-01T01:14:38;7.70;;;6.93;;
18796;SDS011;9526;52.612;13.300;2022-08-01T01:17:08;9.60;;;8.30;;
18796;SDS011;9526;52.612;13.300;2022-08-01T01:19:33;9.63;;;8.57;;
18796;SDS011;9526;52.612;13.300;2022-08-01T01:22:18;10.00;;;9.02;;
18796;SDS011;9526;52.612;13.300;2022-08-01T01:24:56;9.60;;;8.48;;
18796;SDS011;9526;52.612;13.300;2022-08-01T01:27:34;10.02;;;8.02;;
18796;SDS011;9526;52.612;13.300;2022-08-01T01:30:09;10.40;;;9.30;;
18796;SDS011;9526;52.612;13.300;2022-08-01T01:32:35;10.18;;;7.72;;
18796;SDS011;9526;52.612;13.300;2022-08-01T01:35:04;10.85;;;9.75;;
18796;SDS011;9526;52.612;13.300;2022-08-01T01:37:32;9.32;;;8.30;;
18796;SDS011;9526;52.612;13.300;2022-08-01T01:39:57;11.20;;;9.50;;
18796;SDS011;9526;52.612;13.300;2022-08-01T01:42:22;10.98;;;9.88;;
18796;SDS011;9526;52.612;13.300;2022-08-01T01:44:48;11.70;;;9.82;;
18796;SDS011;9526;52.612;13.300;2022-08-01T01:47:15;10.90;;;9.50;;
18796;SDS011;9526;52.612;13.300;2022-08-01T01:49:40;9.55;;;8.35;;
18796;SDS011;9526;52.612;13.300;2022-08-01T01:52:08;11.43;;;9.05;;
18796;SDS011;9526;52.612;13.300;2022-08-01T01:54:35;13.20;;;10.18;;
18796;SDS011;9526;52.612;13.300;2022-08-01T01:57:03;10.70;;;9.45;;
18796;SDS011;9526;52.612;13.300;2022-08-01T01:59:31;11.40;;;9.35;;
18796;SDS011;9526;52.612;13.300;2022-08-01T02:01:58;11.75;;;9.63;;
18796;SDS011;9526;52.612;13.300;2022-08-01T02:04:28;12.65;;;9.73;;
18796;SDS011;9526;52.612;13.300;2022-08-01T02:06:54;10.55;;;9.65;;
18796;SDS011;9526;52.612;13.300;2022-08-01T02:09:19;11.77;;;10.57;;
18796;SDS011;9526;52.612;13.300;2022-08-01T02:11:44;11.30;;;10.20;;
18796;SDS011;9526;52.612;13.300;2022-08-01T02:14:29;11.82;;;10.52;;
18796;SDS011;9526;52.612;13.300;2022-08-01T02:16:56;12.35;;;10.73;;
18796;SDS011;9526;52.612;13.300;2022-08-01T02:19:25;12.35;;;10.48;;
18796;SDS011;9526;52.612;13.300;2022-08-01T02:21:51;11.85;;;10.27;;
18796;SDS011;9526;52.612;13.300;2022-08-01T02:24:21;12.05;;;10.38;;
18796;SDS011;9526;52.612;13.300;2022-08-01T02:26:57;12.63;;;10.95;;
18796;SDS011;9526;52.612;13.300;2022-08-01T02:29:27;11.43;;;10.35;;
18796;SDS011;9526;52.612;13.300;2022-08-01T02:31:58;11.65;;;10.45;;
18796;SDS011;9526;52.612;13.300;2022-08-01T02:34:25;11.30;;;9.80;;
18796;SDS011;9526;52.612;13.300;2022-08-01T02:36:55;14.57;;;10.18;;
18796;SDS011;9526;52.612;13.300;2022-08-01T02:39:20;10.90;;;9.77;;
18796;SDS011;9526;52.612;13.300;2022-08-01T02:41:47;10.80;;;9.35;;
18796;SDS011;9526;52.612;13.300;2022-08-01T02:44:15;10.65;;;9.65;;
18796;SDS011;9526;52.612;13.300;2022-08-01T02:46:48;14.82;;;10.13;;
18796;SDS011;9526;52.612;13.300;2022-08-01T02:49:15;11.23;;;9.82;;
18796;SDS011;9526;52.612;13.300;2022-08-01T02:51:42;13.02;;;10.80;;
18796;SDS011;9526;52.612;13.300;2022-08-01T02:54:10;10.82;;;9.57;;
18796;SDS011;9526;52.612;13.300;2022-08-01T02:56:35;8.73;;;7.93;;
18796;SDS011;9526;52.612;13.300;2022-08-01T02:59:00;10.38;;;9.38;;
18796;SDS011;9526;52.612;13.300;2022-08-01T03:01:27;11.30;;;10.15;;
18796;SDS011;9526;52.612;13.300;2022-08-01T03:03:53;11.85;;;10.65;;
18796;SDS011;9526;52.612;13.300;2022-08-01T03:06:18;13.93;;;11.10;;
18796;SDS011;9526;52.612;13.300;2022-08-01T03:08:42;12.13;;;10.93;;
18796;SDS011;9526;52.612;13.300;2022-08-01T03:11:08;10.68;;;9.68;;
18796;SDS011;9526;52.612;13.300;2022-08-01T03:13:33;12.13;;;11.02;;
18796;SDS011;9526;52.612;13.300;2022-08-01T03:15:58;11.15;;;10.10;;
18796;SDS011;9526;52.612;13.300;2022-08-01T03:18:24;12.32;;;11.10;;
18796;SDS011;9526;52.612;13.300;2022-08-01T03:20:49;12.27;;;10.30;;
18796;SDS011;9526;52.612;13.300;2022-08-01T03:23:15;13.23;;;11.82;;
18796;SDS011;9526;52.612;13.300;2022-08-01T03:25:43;13.63;;;12.15;;
18796;SDS011;9526;52.612;13.300;2022-08-01T03:28:10;12.50;;;11.20;;
18796;SDS011;9526;52.612;13.300;2022-08-01T03:30:37;14.77;;;12.00;;
18796;SDS011;9526;52.612;13.300;2022-08-01T03:33:02;14.05;;;10.50;;
18796;SDS011;9526;52.612;13.300;2022-08-01T03:35:29;11.52;;;10.25;;
18796;SDS011;9526;52.612;13.300;2022-08-01T03:37:58;12.63;;;11.32;;
18796;SDS011;9526;52.612;13.300;2022-08-01T03:40:42;12.05;;;10.77;;
18796;SDS011;9526;52.612;13.300;2022-08-01T03:43:18;14.35;;;11.32;;
18796;SDS011;9526;52.612;13.300;2022-08-01T03:45:46;11.98;;;10.85;;
18796;SDS011;9526;52.612;13.300;2022-08-01T03:48:14;12.57;;;11.38;;
18796;SDS011;9526;52.612;13.300;2022-08-01T03:50:41;13.50;;;10.70;;
18796;SDS011;9526;52.612;13.300;2022-08-01T03:53:14;12.75;;;11.25;;
18796;SDS011;9526;52.612;13.300;2022-08-01T03:55:42;12.60;;;11.40;;
18796;SDS011;9526;52.612;13.300;2022-08-01T03:58:07;14.55;;;11.15;;
18796;SDS011;9526;52.612;13.300;2022-08-01T04:00:34;13.13;;;11.60;;
18796;SDS011;9526;52.612;13.300;2022-08-01T04:03:00;12.05;;;10.95;;
18796;SDS011;9526;52.612;13.300;2022-08-01T04:05:25;12.32;;;11.02;;
18796;SDS011;9526;52.612;13.300;2022-08-01T04:07:49;11.23;;;9.77;;
18796;SDS011;9526;52.612;13.300;2022-08-01T04:10:17;13.00;;;11.25;;
18796;SDS011;9526;52.612;13.300;2022-08-01T04:12:40;11.80;;;10.55;;
18796;SDS011;9526;52.612;13.300;2022-08-01T04:15:05;11.80;;;10.60;;
18796;SDS011;9526;52.612;13.300;2022-08-01T04:17:31;13.55;;;10.25;;
18796;SDS011;9526;52.612;13.300;2022-08-01T04:19:55;11.65;;;10.02;;
18796;SDS011;9526;52.612;13.300;2022-08-01T04:22:19;12.57;;;11.05;;
18796;SDS011;9526;52.612;13.300;2022-08-01T04:24:44;16.63;;;11.88;;
18796;SDS011;9526;52.612;13.300;2022-08-01T04:27:19;12.80;;;11.18;;
18796;SDS011;9526;52.612;13.300;2022-08-01T04:30:06;13.50;;;11.27;;
18796;SDS011;9526;52.612;13.300;2022-08-01T04:32:39;14.23;;;11.32;;
18796;SDS011;9526;52.612;13.300;2022-08-01T04:35:07;11.95;;;10.68;;
18796;SDS011;9526;52.612;13.300;2022-08-01T04:37:54;14.15;;;10.75;;
18796;SDS011;9526;52.612;13.300;2022-08-01T04:40:18;15.20;;;11.32;;
18796;SDS011;9526;52.612;13.300;2022-08-01T04:42:44;14.00;;;12.07;;
18796;SDS011;9526;52.612;13.300;2022-08-01T04:45:10;15.73;;;12.18;;
18796;SDS011;9526;52.612;13.300;2022-08-01T04:47:34;16.48;;;11.98;;
18796;SDS011;9526;52.612;13.300;2022-08-01T04:50:00;16.00;;;12.13;;
18796;SDS011;9526;52.612;13.300;2022-08-01T04:52:32;17.65;;;12.50;;
18796;SDS011;9526;52.612;13.300;2022-08-01T04:54:57;17.75;;;13.13;;
18796;SDS011;9526;52.612;13.300;2022-08-01T04:57:21;16.45;;;12.82;;
18796;SDS011;9526;52.612;13.300;2022-08-01T04:59:44;15.68;;;12.77;;
18796;SDS011;9526;52.612;13.300;2022-08-01T05:02:09;17.45;;;12.98;;
18796;SDS011;9526;52.612;13.300;2022-08-01T05:04:34;21.92;;;14.38;;
18796;SDS011;9526;52.612;13.300;2022-08-01T05:07:00;16.25;;;13.52;;
18796;SDS011;9526;52.612;13.300;2022-08-01T05:09:24;21.00;;;14.45;;
18796;SDS011;9526;52.612;13.300;2022-08-01T05:11:51;19.50;;;13.57;;
18796;SDS011;9526;52.612;13.300;2022-08-01T05:14:16;18.92;;;14.48;;
18796;SDS011;9526;52.612;13.300;2022-08-01T05:16:39;23.27;;;14.50;;
18796;SDS011;9526;52.612;13.300;2022-08-01T05:19:03;17.98;;;14.18;;
18796;SDS011;9526;52.612;13.300;2022-08-01T05:21:29;15.63;;;13.88;;
18796;SDS011;9526;52.612;13.300;2022-08-01T05:23:54;17.35;;;13.55;;
18796;SDS011;9526;52.612;13.300;2022-08-01T05:26:19;17.10;;;13.25;;
18796;SDS011;9526;52.612;13.300;2022-08-01T05:28:43;17.70;;;14.32;;
18796;SDS011;9526;52.612;13.300;2022-08-01T05:31:07;17.45;;;13.88;;
18796;SDS011;9526;52.612;13.300;2022-08-01T05:33:31;16.98;;;14.63;;
18796;SDS011;9526;52.612;13.300;2022-08-01T05:35:54;21.15;;;13.93;;
18796;SDS011;9526;52.612;13.300;2022-08-01T05:38:18;18.38;;;13.57;;
18796;SDS011;9526;52.612;13.300;2022-08-01T05:40:43;18.35;;;13.65;;
18796;SDS011;9526;52.612;13.300;2022-08-01T05:43:07;15.52;;;13.45;;
18796;SDS011;9526;52.612;13.300;2022-08-01T05:45:31;17.88;;;13.48;;
18796;SDS011;9526;52.612;13.300;2022-08-01T05:47:55;16.30;;;13.05;;
18796;SDS011;9526;52.612;13.300;2022-08-01T05:50:19;15.15;;;12.02;;
18796;SDS011;9526;52.612;13.300;2022-08-01T05:52:43;17.65;;;12.95;;
18796;SDS011;9526;52.612;13.300;2022-08-01T05:55:07;14.57;;;12.15;;
18796;SDS011;9526;52.612;13.300;2022-08-01T05:57:33;15.27;;;12.52;;
18796;SDS011;9526;52.612;13.300;2022-08-01T05:59:59;15.07;;;11.95;;
18796;SDS011;9526;52.612;13.300;2022-08-01T06:02:32;16.17;;;12.75;;
18796;SDS011;9526;52.612;13.300;2022-08-01T06:04:56;17.38;;;13.07;;
18796;SDS011;9526;52.612;13.300;2022-08-01T06:07:19;15.00;;;11.88;;
18796;SDS011;9526;52.612;13.300;2022-08-01T06:09:43;14.18;;;11.25;;
18796;SDS011;9526;52.612;13.300;2022-08-01T06:12:07;13.07;;;11.43;;
18796;SDS011;9526;52.612;13.300;2022-08-01T06:14:32;14.02;;;12.07;;
18796;SDS011;9526;52.612;13.300;2022-08-01T06:16:56;14.68;;;11.32;;
18796;SDS011;9526;52.612;13.300;2022-08-01T06:19:20;13.00;;;10.95;;
18796;SDS011;9526;52.612;13.300;2022-08-01T06:21:44;12.30;;;9.98;;
18796;SDS011;9526;52.612;13.300;2022-08-01T06:24:07;12.40;;;9.50;;
18796;SDS011;9526;52.612;13.300;2022-08-01T06:26:31;11.57;;;10.07;;
18796;SDS011;9526;52.612;13.300;2022-08-01T06:28:55;11.57;;;9.98;;
18796;SDS011;9526;52.612;13.300;2022-08-01T06:31:20;10.90;;;9.55;;
18796;SDS011;9526;52.612;13.300;2022-08-01T06:33:44;12.30;;;8.57;;
18796;SDS011;9526;52.612;13.300;2022-08-01T06:36:07;11.32;;;7.97;;
18796;SDS011;9526;52.612;13.300;2022-08-01T06:38:31;8.60;;;7.80;;
18796;SDS011;9526;52.612;13.300;2022-08-01T06:40:55;8.57;;;7.50;;
18796;SDS011;9526;52.612;13.300;2022-08-01T06:43:19;9.90;;;7.68;;
18796;SDS011;9526;52.612;13.300;2022-08-01T06:45:43;10.20;;;7.90;;
18796;SDS011;9526;52.612;13.300;2022-08-01T06:48:08;7.63;;;6.72;;
18796;SDS011;9526;52.612;13.300;2022-08-01T06:50:32;8.40;;;6.80;;
18796;SDS011;9526;52.612;13.300;2022-08-01T06:52:58;6.28;;;5.75;;
18796;SDS011;9526;52.612;13.300;2022-08-01T06:55:21;6.93;;;6.22;;
18796;SDS011;9526;52.612;13.300;2022-08-01T06:57:46;7.68;;;6.10;;
18796;SDS011;9526;52.612;13.300;2022-08-01T07:00:11;6.88;;;6.10;;
18796;SDS011;9526;52.612;13.300;2022-08-01T07:02:37;6.35;;;5.68;;
18796;SDS011;9526;52.612;13.300;2022-08-01T07:05:04;6.80;;;6.10;;
18796;SDS011;9526;52.612;13.300;2022-08-01T07:07:28;7.80;;;5.72;;
18796;SDS011;9526;52.612;13.300;2022-08-01T07:09:52;6.28;;;5.65;;
18796;SDS011;9526;52.612;13.300;2022-08-01T07:12:16;7.68;;;5.35;;
18796;SDS011;9526;52.612;13.300;2022-08-01T07:14:39;5.18;;;4.68;;
18796;SDS011;9526;52.612;13.300;2022-08-01T07:17:03;7.15;;;5.70;;
18796;SDS011;9526;52.612;13.300;2022-08-01T07:19:27;5.60;;;5.10;;
18796;SDS011;9526;52.612;13.300;2022-08-01T07:21:52;6.18;;;4.90;;
18796;SDS011;9526;52.612;13.300;2022-08-01T07:24:18;5.93;;;5.35;;
18796;SDS011;9526;52.612;13.300;2022-08-01T07:26:43;6.07;;;5.47;;
18796;SDS011;9526;52.612;13.300;2022-08-01T07:29:14;6.10;;;5.50;;
18796;SDS011;9526;52.612;13.300;2022-08-01T07:31:38;5.93;;;5.32;;
18796;SDS011;9526;52.612;13.300;2022-08-01T07:34:02;5.60;;;5.10;;
18796;SDS011;9526;52.612;13.300;2022-08-01T07:36:26;5.35;;;4.35;;
18796;SDS011;9526;52.612;13.300;2022-08-01T07:38:51;5.10;;;4.70;;
18796;SDS011;9526;52.612;13.300;2022-08-01T07:41:15;8.05;;;4.80;;
18796;SDS011;9526;52.612;13.300;2022-08-01T07:43:39;6.28;;;4.85;;
18796;SDS011;9526;52.612;13.300;2022-08-01T07:46:16;5.10;;;4.60;;
18796;SDS011;9526;52.612;13.300;2022-08-01T07:48:40;5.57;;;4.28;;
18796;SDS011;9526;52.612;13.300;2022-08-01T07:51:04;4.63;;;4.22;;
18796;SDS011;9526;52.612;13.300;2022-08-01T07:53:28;5.25;;;4.38;;
18796;SDS011;9526;52.612;13.300;2022-08-01T07:55:53;5.00;;;4.20;;
18796;SDS011;9526;52.612;13.300;2022-08-01T07:58:17;7.55;;;5.30;;
18796;SDS011;9526;52.612;13.300;2022-08-01T08:00:41;5.13;;;4.63;;
18796;SDS011;9526;52.612;13.300;2022-08-01T08:03:05;6.18;;;4.68;;
18796;SDS011;9526;52.612;13.300;2022-08-01T08:05:29;5.18;;;4.70;;
18796;SDS011;9526;52.612;13.300;2022-08-01T08:08:14;5.85;;;4.82;;
18796;SDS011;9526;52.612;13.300;2022-08-01T08:10:42;5.18;;;4.03;;
18796;SDS011;9526;52.612;13.300;2022-08-01T08:13:07;5.35;;;4.18;;
18796;SDS011;9526;52.612;13.300;2022-08-01T08:15:32;5.05;;;4.20;;
18796;SDS011;9526;52.612;13.300;2022-08-01T08:17:56;4.47;;;4.07;;
18796;SDS011;9526;52.612;13.300;2022-08-01T08:20:19;4.70;;;3.92;;
18796;SDS011;9526;52.612;13.300;2022-08-01T08:22:46;4.70;;;3.47;;
18796;SDS011;9526;52.612;13.300;2022-08-01T08:25:10;4.82;;;3.67;;
18796;SDS011;9526;52.612;13.300;2022-08-01T08:27:34;3.53;;;3.22;;
18796;SDS011;9526;52.612;13.300;2022-08-01T08:29:59;4.13;;;3.33;;
18796;SDS011;9526;52.612;13.300;2022-08-01T08:32:23;4.57;;;3.28;;
18796;SDS011;9526;52.612;13.300;2022-08-01T08:34:47;3.45;;;2.95;;
18796;SDS011;9526;52.612;13.300;2022-08-01T08:37:11;5.72;;;3.20;;
18796;SDS011;9526;52.612;13.300;2022-08-01T08:39:35;3.40;;;3.10;;
18796;SDS011;9526;52.612;13.300;2022-08-01T08:42:04;3.20;;;2.90;;
18796;SDS011;9526;52.612;13.300;2022-08-01T08:44:30;2.80;;;2.60;;
18796;SDS011;9526;52.612;13.300;2022-08-01T08:46:55;3.28;;;2.97;;
18796;SDS011;9526;52.612;13.300;2022-08-01T08:49:29;2.83;;;2.63;;
18796;SDS011;9526;52.612;13.300;2022-08-01T08:51:57;2.78;;;2.50;;
18796;SDS011;9526;52.612;13.300;2022-08-01T08:54:23;2.92;;;2.58;;
18796;SDS011;9526;52.612;13.300;2022-08-01T08:56:52;2.60;;;2.40;;
18796;SDS011;9526;52.612;13.300;2022-08-01T08:59:17;2.30;;;2.10;;
18796;SDS011;9526;52.612;13.300;2022-08-01T09:01:41;2.85;;;2.40;;
18796;SDS011;9526;52.612;13.300;2022-08-01T09:04:07;2.90;;;2.70;;
18796;SDS011;9526;52.612;13.300;2022-08-01T09:06:31;2.70;;;2.47;;
18796;SDS011;9526;52.612;13.300;2022-08-01T09:08:55;2.72;;;2.53;;
18796;SDS011;9526;52.612;13.300;2022-08-01T09:11:19;3.33;;;2.72;;
18796;SDS011;9526;52.612;13.300;2022-08-01T09:13:45;3.35;;;2.47;;
18796;SDS011;9526;52.612;13.300;2022-08-01T09:16:25;3.70;;;2.83;;
18796;SDS011;9526;52.612;13.300;2022-08-01T09:18:49;2.90;;;2.60;;
18796;SDS011;9526;52.612;13.300;2022-08-01T09:21:16;2.83;;;2.28;;
18796;SDS011;9526;52.612;13.300;2022-08-01T09:23:43;2.67;;;2.47;;
18796;SDS011;9526;52.612;13.300;2022-08-01T09:26:16;2.75;;;2.55;;
18796;SDS011;9526;52.612;13.300;2022-08-01T09:28:41;4.50;;;2.88;;
18796;SDS011;9526;52.612;13.300;2022-08-01T09:31:09;3.13;;;2.92;;
18796;SDS011;9526;52.612;13.300;2022-08-01T09:36:21;2.67;;;2.47;;
18796;SDS011;9526;52.612;13.300;2022-08-01T09:38:47;2.60;;;2.40;;
18796;SDS011;9526;52.612;13.300;2022-08-01T09:41:11;3.33;;;2.50;;
18796;SDS011;9526;52.612;13.300;2022-08-01T09:43:35;3.90;;;2.20;;
18796;SDS011;9526;52.612;13.300;2022-08-01T09:45:59;3.05;;;2.50;;
18796;SDS011;9526;52.612;13.300;2022-08-01T09:48:33;3.45;;;2.70;;
18796;SDS011;9526;52.612;13.300;2022-08-01T09:50:58;3.92;;;2.70;;
18796;SDS011;9526;52.612;13.300;2022-08-01T09:53:40;3.13;;;2.90;;
18796;SDS011;9526;52.612;13.300;2022-08-01T09:56:13;4.03;;;2.90;;
18796;SDS011;9526;52.612;13.300;2022-08-01T09:58:50;3.08;;;2.75;;
18796;SDS011;9526;52.612;13.300;2022-08-01T10:01:21;3.55;;;2.90;;
18796;SDS011;9526;52.612;13.300;2022-08-01T10:03:47;2.88;;;2.67;;
18796;SDS011;9526;52.612;13.300;2022-08-01T10:06:31;3.30;;;3.00;;
18796;SDS011;9526;52.612;13.300;2022-08-01T10:08:56;2.70;;;2.50;;
18796;SDS011;9526;52.612;13.300;2022-08-01T10:11:20;2.95;;;2.70;;
18796;SDS011;9526;52.612;13.300;2022-08-01T10:13:56;2.78;;;2.42;;
18796;SDS011;9526;52.612;13.300;2022-08-01T10:16:22;2.70;;;2.50;;
18796;SDS011;9526;52.612;13.300;2022-08-01T10:18:50;3.22;;;2.72;;
18796;SDS011;9526;52.612;13.300;2022-08-01T10:21:17;3.58;;;2.50;;
18796;SDS011;9526;52.612;13.300;2022-08-01T10:24:03;2.95;;;2.60;;
18796;SDS011;9526;52.612;13.300;2022-08-01T10:26:32;2.70;;;2.50;;
18796;SDS011;9526;52.612;13.300;2022-08-01T10:29:00;2.60;;;2.40;;
18796;SDS011;9526;52.612;13.300;2022-08-01T10:31:44;3.05;;;2.30;;
18796;SDS011;9526;52.612;13.300;2022-08-01T10:34:11;2.95;;;2.10;;
18796;SDS011;9526;52.612;13.300;2022-08-01T10:36:43;2.15;;;2.03;;
18796;SDS011;9526;52.612;13.300;2022-08-01T10:39:11;2.25;;;2.05;;
18796;SDS011;9526;52.612;13.300;2022-08-01T10:41:40;2.45;;;2.25;;
18796;SDS011;9526;52.612;13.300;2022-08-01T10:44:04;3.05;;;2.00;;
18796;SDS011;9526;52.612;13.300;2022-08-01T10:46:30;1.98;;;1.88;;
18796;SDS011;9526;52.612;13.300;2022-08-01T10:48:55;2.10;;;1.90;;
18796;SDS011;9526;52.612;13.300;2022-08-01T10:51:25;4.85;;;2.08;;
18796;SDS011;9526;52.612;13.300;2022-08-01T10:54:11;2.17;;;1.77;;
18796;SDS011;9526;52.612;13.300;2022-08-01T10:56:39;3.90;;;1.85;;
18796;SDS011;9526;52.612;13.300;2022-08-01T10:59:06;2.65;;;1.88;;
18796;SDS011;9526;52.612;13.300;2022-08-01T11:01:32;3.33;;;1.92;;
18796;SDS011;9526;52.612;13.300;2022-08-01T11:04:01;2.42;;;1.80;;
18796;SDS011;9526;52.612;13.300;2022-08-01T11:09:37;3.63;;;1.90;;
18796;SDS011;9526;52.612;13.300;2022-08-01T11:12:11;2.33;;;2.13;;
18796;SDS011;9526;52.612;13.300;2022-08-01T11:17:58;2.80;;;1.83;;
18796;SDS011;9526;52.612;13.300;2022-08-01T11:20:25;1.88;;;1.77;;
18796;SDS011;9526;52.612;13.300;2022-08-01T11:26:11;1.70;;;1.60;;
18796;SDS011;9526;52.612;13.300;2022-08-01T11:31:43;1.85;;;1.75;;
18796;SDS011;9526;52.612;13.300;2022-08-01T11:34:08;1.92;;;1.58;;
18796;SDS011;9526;52.612;13.300;2022-08-01T11:36:32;3.95;;;1.40;;
18796;SDS011;9526;52.612;13.300;2022-08-01T11:39:16;1.40;;;1.30;;
18796;SDS011;9526;52.612;13.300;2022-08-01T11:41:42;1.33;;;1.30;;
18796;SDS011;9526;52.612;13.300;2022-08-01T11:44:11;1.50;;;1.40;;
18796;SDS011;9526;52.612;13.300;2022-08-01T11:46:49;1.27;;;1.10;;
18796;SDS011;9526;52.612;13.300;2022-08-01T11:52:13;2.80;;;1.30;;
18796;SDS011;9526;52.612;13.300;2022-08-01T11:54:39;1.33;;;1.23;;
18796;SDS011;9526;52.612;13.300;2022-08-01T11:57:07;1.20;;;1.10;;
18796;SDS011;9526;52.612;13.300;2022-08-01T11:59:37;2.53;;;1.40;;
18796;SDS011;9526;52.612;13.300;2022-08-01T12:02:33;4.10;;;1.50;;
18796;SDS011;9526;52.612;13.300;2022-08-01T12:04:58;1.60;;;1.20;;
18796;SDS011;9526;52.612;13.300;2022-08-01T12:07:26;1.13;;;1.13;;
18796;SDS011;9526;52.612;13.300;2022-08-01T12:09:58;1.40;;;1.30;;
18796;SDS011;9526;52.612;13.300;2022-08-01T12:12:26;1.40;;;1.30;;
18796;SDS011;9526;52.612;13.300;2022-08-01T12:14:52;2.67;;;1.35;;
18796;SDS011;9526;52.612;13.300;2022-08-01T12:17:17;1.30;;;1.20;;
18796;SDS011;9526;52.612;13.300;2022-08-01T12:19:41;2.17;;;1.40;;
18796;SDS011;9526;52.612;13.300;2022-08-01T12:22:05;1.75;;;1.40;;
18796;SDS011;9526;52.612;13.300;2022-08-01T12:24:34;1.60;;;1.50;;
18796;SDS011;9526;52.612;13.300;2022-08-01T12:26:58;1.88;;;1.35;;
18796;SDS011;9526;52.612;13.300;2022-08-01T12:29:34;1.70;;;1.30;;
18796;SDS011;9526;52.612;13.300;2022-08-01T12:32:00;1.30;;;1.20;;
18796;SDS011;9526;52.612;13.300;2022-08-01T12:34:25;1.73;;;1.33;;
18796;SDS011;9526;52.612;13.300;2022-08-01T12:36:50;3.25;;;1.55;;
18796;SDS011;9526;52.612;13.300;2022-08-01T12:39:14;1.42;;;1.30;;
18796;SDS011;9526;52.612;13.300;2022-08-01T12:41:37;2.22;;;1.40;;
18796;SDS011;9526;52.612;13.300;2022-08-01T12:44:01;3.13;;;1.30;;
18796;SDS011;9526;52.612;13.300;2022-08-01T12:46:26;1.50;;;1.40;;
18796;SDS011;9526;52.612;13.300;2022-08-01T12:48:50;2.72;;;1.40;;
18796;SDS011;9526;52.612;13.300;2022-08-01T12:51:14;1.98;;;1.45;;
18796;SDS011;9526;52.612;13.300;2022-08-01T12:53:38;1.98;;;1.40;;
18796;SDS011;9526;52.612;13.300;2022-08-01T12:56:02;3.83;;;1.60;;
18796;SDS011;9526;52.612;13.300;2022-08-01T12:58:30;1.77;;;1.38;;
18796;SDS011;9526;52.612;13.300;2022-08-01T13:01:02;1.88;;;1.40;;
18796;SDS011;9526;52.612;13.300;2022-08-01T13:03:29;2.95;;;1.60;;
18796;SDS011;9526;52.612;13.300;2022-08-01T13:05:55;1.40;;;1.30;;
18796;SDS011;9526;52.612;13.300;2022-08-01T13:08:20;1.40;;;1.30;;
18796;SDS011;9526;52.612;13.300;2022-08-01T13:10:46;1.88;;;1.50;;
18796;SDS011;9526;52.612;13.300;2022-08-01T13:13:11;1.30;;;1.20;;
18796;SDS011;9526;52.612;13.300;2022-08-01T13:15:49;1.65;;;1.20;;
18796;SDS011;9526;52.612;13.300;2022-08-01T13:18:31;1.77;;;1.30;;
18796;SDS011;9526;52.612;13.300;2022-08-01T13:21:12;2.45;;;1.30;;
18796;SDS011;9526;52.612;13.300;2022-08-01T13:23:38;2.08;;;1.70;;
18796;SDS011;9526;52.612;13.300;2022-08-01T13:26:36;2.50;;;1.55;;
18796;SDS011;9526;52.612;13.300;2022-08-01T13:29:04;4.22;;;1.55;;
18796;SDS011;9526;52.612;13.300;2022-08-01T13:31:31;1.70;;;1.60;;
18796;SDS011;9526;52.612;13.300;2022-08-01T13:33:57;1.77;;;1.40;;
18796;SDS011;9526;52.612;13.300;2022-08-01T13:36:21;1.83;;;1.73;;
18796;SDS011;9526;52.612;13.300;2022-08-01T13:38:48;2.22;;;1.80;;
18796;SDS011;9526;52.612;13.300;2022-08-01T13:41:33;2.30;;;1.65;;
18796;SDS011;9526;52.612;13.300;2022-08-01T13:43:56;1.80;;;1.70;;
18796;SDS011;9526;52.612;13.300;2022-08-01T13:46:20;2.67;;;1.80;;
18796;SDS011;9526;52.612;13.300;2022-08-01T13:48:45;4.05;;;2.10;;
18796;SDS011;9526;52.612;13.300;2022-08-01T13:51:12;2.13;;;1.98;;
18796;SDS011;9526;52.612;13.300;2022-08-01T13:53:43;2.78;;;1.98;;
18796;SDS011;9526;52.612;13.300;2022-08-01T13:56:07;3.50;;;2.00;;
18796;SDS011;9526;52.612;13.300;2022-08-01T13:58:30;3.50;;;2.00;;
18796;SDS011;9526;52.612;13.300;2022-08-01T14:00:54;2.55;;;2.03;;
18796;SDS011;9526;52.612;13.300;2022-08-01T14:03:18;2.38;;;1.77;;
18796;SDS011;9526;52.612;13.300;2022-08-01T14:05:53;3.30;;;2.10;;
18796;SDS011;9526;52.612;13.300;2022-08-01T14:08:20;1.90;;;1.80;;
18796;SDS011;9526;52.612;13.300;2022-08-01T14:10:45;1.75;;;1.55;;
18796;SDS011;9526;52.612;13.300;2022-08-01T14:13:09;1.90;;;1.80;;
18796;SDS011;9526;52.612;13.300;2022-08-01T14:15:33;1.75;;;1.65;;
18796;SDS011;9526;52.612;13.300;2022-08-01T14:18:00;2.03;;;1.75;;
18796;SDS011;9526;52.612;13.300;2022-08-01T14:20:26;2.00;;;1.65;;
18796;SDS011;9526;52.612;13.300;2022-08-01T14:22:50;1.77;;;1.50;;
18796;SDS011;9526;52.612;13.300;2022-08-01T14:25:15;2.10;;;1.90;;
18796;SDS011;9526;52.612;13.300;2022-08-01T14:27:59;2.78;;;1.75;;
18796;SDS011;9526;52.612;13.300;2022-08-01T14:30:23;1.85;;;1.58;;
18796;SDS011;9526;52.612;13.300;2022-08-01T14:32:47;2.55;;;1.55;;
18796;SDS011;9526;52.612;13.300;2022-08-01T14:35:10;2.00;;;1.52;;
18796;SDS011;9526;52.612;13.300;2022-08-01T14:37:34;1.70;;;1.60;;
18796;SDS011;9526;52.612;13.300;2022-08-01T14:39:59;1.85;;;1.70;;
18796;SDS011;9526;52.612;13.300;2022-08-01T14:42:31;2.10;;;1.80;;
18796;SDS011;9526;52.612;13.300;2022-08-01T14:44:55;3.75;;;1.50;;
18796;SDS011;9526;52.612;13.300;2022-08-01T14:47:19;1.40;;;1.27;;
18796;SDS011;9526;52.612;13.300;2022-08-01T14:49:43;1.95;;;1.50;;
18796;SDS011;9526;52.612;13.300;2022-08-01T14:52:07;6.53;;;1.40;;
18796;SDS011;9526;52.612;13.300;2022-08-01T14:54:31;2.50;;;1.17;;
18796;SDS011;9526;52.612;13.300;2022-08-01T14:56:55;2.80;;;1.33;;
18796;SDS011;9526;52.612;13.300;2022-08-01T14:59:20;3.78;;;1.40;;
18796;SDS011;9526;52.612;13.300;2022-08-01T15:01:44;2.67;;;1.15;;